Time;durP1;ratioP1;P1;durP2;ratioP2;P2;SDS_P1;SDS_P2;PMS_P1;PMS_P2;Temp;Humidity;BMP_temperature;BMP_pressure;BME280_temperature;BME280_humidity;BME280_pressure;Samples;Min_cycle;Max_cycle;Signal;HPM_P1;HPM_P2
2022/03/22 00:02:18;;;;;;;2.22;0.73;;;;;;;10.82;100.00;102212.09;4921488;29;20582;-74
2022/03/22 00:04:48;;;;;;;1.30;0.65;;;;;;;10.84;100.00;102211.34;4934621;29;20509;-76
2022/03/22 00:07:17;;;;;;;2.33;0.77;;;;;;;10.82;100.00;102212.09;4933222;29;20051;-73
2022/03/22 00:09:45;;;;;;;1.95;0.70;;;;;;;10.84;100.00;102215.66;4924525;29;20161;-75
2022/03/22 00:12:14;;;;;;;2.08;0.90;;;;;;;10.88;100.00;102215.91;4928426;29;20099;-74
2022/03/22 00:14:43;;;;;;;1.50;0.80;;;;;;;10.92;100.00;102210.88;4933910;29;20145;-73
2022/03/22 00:17:12;;;;;;;1.58;0.88;;;;;;;10.91;100.00;102209.97;4919079;29;20523;-75
2022/03/22 00:19:40;;;;;;;1.80;0.88;;;;;;;10.90;100.00;102209.09;4925089;29;20079;-74
2022/03/22 00:22:11;;;;;;;2.70;0.70;;;;;;;10.90;100.00;102211.69;4914964;29;20088;-73
2022/03/22 00:24:39;;;;;;;1.60;1.00;;;;;;;10.92;100.00;102216.91;4914460;29;20056;-74
2022/03/22 00:27:08;;;;;;;1.95;0.70;;;;;;;10.96;100.00;102218.88;4924905;29;20044;-72
2022/03/22 00:29:37;;;;;;;1.85;0.70;;;;;;;10.98;100.00;102217.25;4932567;29;20513;-75
2022/03/22 00:32:08;;;;;;;1.63;0.73;;;;;;;11.01;100.00;102219.97;4924765;29;20502;-74
2022/03/22 00:34:44;;;;;;;1.48;0.80;;;;;;;11.01;100.00;102219.97;4916397;29;20506;-75
2022/03/22 00:37:16;;;;;;;3.58;0.68;;;;;;;11.00;100.00;102212.16;4914385;29;20055;-75
2022/03/22 00:39:46;;;;;;;0.90;0.60;;;;;;;11.00;100.00;102213.03;4929982;28;20135;-76
2022/03/22 00:42:15;;;;;;;1.52;0.80;;;;;;;11.00;100.00;102209.56;4921563;29;20115;-75
2022/03/22 00:44:43;;;;;;;1.75;0.60;;;;;;;11.01;100.00;102217.41;4933517;29;20043;-76
2022/03/22 00:47:12;;;;;;;0.65;0.40;;;;;;;11.02;100.00;102206.25;4929982;29;20587;-75
2022/03/22 00:49:41;;;;;;;1.83;0.60;;;;;;;11.05;100.00;102218.44;4922661;29;20509;-76
2022/03/22 00:52:10;;;;;;;1.23;0.80;;;;;;;11.00;100.00;102214.75;4933029;29;20118;-76
2022/03/22 00:54:40;;;;;;;0.68;0.40;;;;;;;11.00;100.00;102217.34;4913763;29;20297;-75
2022/03/22 00:57:08;;;;;;;2.47;0.70;;;;;;;11.01;100.00;102221.69;4916382;29;20052;-74
2022/03/22 01:02:22;;;;;;;1.67;0.73;;;;;;;11.00;100.00;102215.63;4926507;29;20058;-75
2022/03/22 01:04:51;;;;;;;0.50;0.45;;;;;;;10.98;100.00;102217.25;4913682;29;20052;-75
2022/03/22 01:07:20;;;;;;;0.95;0.50;;;;;;;10.99;100.00;102213.84;4913646;29;20565;-76
2022/03/22 01:09:50;;;;;;;2.28;0.75;;;;;;;11.03;100.00;102215.78;4913828;29;20063;-75
2022/03/22 01:12:19;;;;;;;2.38;0.70;;;;;;;11.03;100.00;102220.94;4926635;29;20055;-76
2022/03/22 01:14:47;;;;;;;2.25;0.50;;;;;;;11.04;100.00;102220.16;4930294;29;20051;-76
2022/03/22 01:17:16;;;;;;;1.75;0.80;;;;;;;11.07;100.00;102214.25;4923320;29;20087;-75
2022/03/22 01:19:44;;;;;;;2.28;0.65;;;;;;;11.11;100.00;102234.31;4914959;29;20115;-75
2022/03/22 01:22:16;;;;;;;1.23;0.75;;;;;;;11.13;100.00;102222.31;4931195;29;20055;-75
2022/03/22 01:24:45;;;;;;;1.73;0.80;;;;;;;11.14;100.00;102226.69;4932105;29;20524;-73
2022/03/22 01:27:15;;;;;;;1.23;0.63;;;;;;;11.15;100.00;102223.28;4915293;29;20119;-73
2022/03/22 01:29:43;;;;;;;1.00;0.70;;;;;;;11.18;100.00;102230.31;4914767;29;20086;-76
2022/03/22 01:32:12;;;;;;;2.30;0.80;;;;;;;11.18;100.00;102219.94;4925867;29;20043;-72
2022/03/22 01:34:41;;;;;;;3.42;0.90;;;;;;;11.17;100.00;102215.59;4917867;29;20110;-72
2022/03/22 01:37:10;;;;;;;1.13;0.70;;;;;;;11.18;100.00;102205.31;4931929;29;20056;-72
2022/03/22 01:39:38;;;;;;;1.13;0.90;;;;;;;11.19;100.00;102201.00;4930571;28;20119;-72
2022/03/22 01:42:07;;;;;;;6.60;1.05;;;;;;;11.20;100.00;102200.19;4927553;29;20111;-72
2022/03/22 01:44:37;;;;;;;1.15;0.80;;;;;;;11.20;100.00;102200.19;4931326;29;20126;-72
2022/03/22 01:47:07;;;;;;;1.88;0.80;;;;;;;11.22;100.00;102198.56;4917376;29;20052;-72
2022/03/22 01:49:35;;;;;;;1.08;0.88;;;;;;;11.19;100.00;102201.91;4919755;29;20091;-72
2022/03/22 01:52:05;;;;;;;7.38;1.20;;;;;;;11.21;100.00;102199.41;4933006;29;20492;-72
2022/03/22 01:54:34;;;;;;;4.05;0.57;;;;;;;11.20;100.00;102201.09;4934556;29;20049;-72
2022/03/22 01:57:02;;;;;;;0.73;0.50;;;;;;;11.21;100.00;102199.41;4920584;29;20134;-72
2022/03/22 01:59:31;;;;;;;2.03;0.80;;;;;;;11.19;100.00;102201.00;4931144;29;20110;-73
2022/03/22 02:07:34;;;;;;;1.83;0.60;;;;;;;11.18;100.00;102205.31;4915076;29;20269;-72
2022/03/22 02:10:03;;;;;;;1.08;0.65;;;;;;;11.19;100.00;102194.13;4926022;29;20143;-72
2022/03/22 02:12:31;;;;;;;1.15;0.75;;;;;;;11.20;100.00;102202.78;4931275;29;20131;-72
2022/03/22 02:14:59;;;;;;;0.50;0.32;;;;;;;11.18;100.00;102205.31;4917521;29;20179;-72
2022/03/22 02:17:30;;;;;;;0.77;0.63;;;;;;;11.17;100.00;102202.63;4931051;29;20048;-72
2022/03/22 02:19:59;;;;;;;2.53;0.82;;;;;;;11.20;100.00;102202.78;4921360;29;20132;-73
2022/03/22 02:22:34;;;;;;;1.48;0.70;;;;;;;11.22;100.00;102201.16;4927060;29;20087;-72
2022/03/22 02:25:05;;;;;;;1.83;0.60;;;;;;;11.20;100.00;102198.50;4922579;29;20134;-73
2022/03/22 02:27:34;;;;;;;1.30;0.70;;;;;;;11.20;100.00;102207.97;4941777;29;20658;-73
2022/03/22 02:30:03;;;;;;;2.15;0.55;;;;;;;11.20;100.00;102197.59;4925580;29;20138;-74
2022/03/22 02:32:32;;;;;;;1.70;0.63;;;;;;;11.20;100.00;102203.69;4930868;29;20533;-73
2022/03/22 02:35:00;;;;;;;2.10;0.65;;;;;;;11.20;100.00;102205.38;4931761;29;20051;-73
2022/03/22 02:37:29;;;;;;;1.17;0.52;;;;;;;11.19;100.00;102211.38;4925884;29;20070;-73
2022/03/22 02:39:57;;;;;;;1.40;0.60;;;;;;;11.20;100.00;102207.97;4931202;28;20060;-73
2022/03/22 02:42:27;;;;;;;3.83;0.68;;;;;;;11.19;100.00;102208.78;4930901;29;20083;-73
2022/03/22 02:44:56;;;;;;;0.68;0.50;;;;;;;11.18;100.00;102199.22;4931146;29;20048;-74
2022/03/22 02:47:24;;;;;;;0.70;0.55;;;;;;;11.21;100.00;102214.94;4931177;29;20569;-71
2022/03/22 02:49:52;;;;;;;1.00;0.60;;;;;;;11.22;100.00;102211.53;4932122;29;20154;-72
2022/03/22 02:52:21;;;;;;;4.03;1.20;;;;;;;11.21;100.00;102209.75;4933384;29;20052;-73
2022/03/22 02:54:49;;;;;;;1.60;0.80;;;;;;;11.22;100.00;102216.69;4920143;29;20056;-73
2022/03/22 02:57:18;;;;;;;2.05;1.00;;;;;;;11.22;100.00;102219.28;4931093;29;20090;-73
2022/03/22 02:59:48;;;;;;;4.18;1.00;;;;;;;11.22;100.00;102212.41;4930913;29;20123;-73
2022/03/22 03:02:16;;;;;;;2.67;0.93;;;;;;;11.25;100.00;102219.47;4911913;29;20108;-73
2022/03/22 03:04:45;;;;;;;1.33;0.85;;;;;;;11.27;100.00;102223.00;4923105;29;20497;-73
2022/03/22 03:07:13;;;;;;;5.03;0.90;;;;;;;11.29;100.00;102218.78;4927119;29;20493;-74
2022/03/22 03:09:42;;;;;;;1.17;0.90;;;;;;;11.28;100.00;102214.44;4911673;29;20056;-73
2022/03/22 03:12:11;;;;;;;1.92;0.50;;;;;;;11.28;100.00;102217.03;4918101;29;20040;-73
2022/03/22 03:14:40;;;;;;;5.50;0.80;;;;;;;11.27;100.00;102215.22;4919347;29;20063;-73
2022/03/22 03:17:13;;;;;;;1.60;0.68;;;;;;;11.26;100.00;102223.81;4911977;29;20100;-73
2022/03/22 03:19:42;;;;;;;0.70;0.60;;;;;;;11.28;100.00;102217.03;4911969;29;20044;-73
2022/03/22 03:22:10;;;;;;;0.60;0.52;;;;;;;11.28;100.00;102217.03;4913582;29;20107;-76
2022/03/22 03:24:39;;;;;;;3.67;0.88;;;;;;;11.30;100.00;102225.75;4917709;29;20056;-77
2022/03/22 03:27:07;;;;;;;1.67;0.70;;;;;;;11.30;100.00;102233.53;4930884;29;20079;-75
2022/03/22 03:29:36;;;;;;;2.85;0.43;;;;;;;11.32;100.00;102237.09;4930030;29;20122;-76
2022/03/22 03:32:05;;;;;;;1.20;0.57;;;;;;;11.33;100.00;102246.63;4930510;29;20060;-77
2022/03/22 03:34:35;;;;;;;4.55;0.95;;;;;;;11.36;100.00;102253.66;4918711;29;20055;-76
2022/03/22 03:37:04;;;;;;;1.63;0.50;;;;;;;11.38;100.00;102258.13;4930972;29;20047;-77
2022/03/22 03:39:32;;;;;;;1.25;0.70;;;;;;;11.39;100.00;102262.50;4924016;28;20063;-76
2022/03/22 03:42:01;;;;;;;2.45;0.70;;;;;;;11.35;100.00;102242.41;4930970;29;20405;-75
2022/03/22 03:47:18;;;;;;;1.55;0.70;;;;;;;11.42;100.00;102252.28;4943632;29;20156;-75
2022/03/22 03:49:49;;;;;;;0.45;0.40;;;;;;;11.44;100.00;102250.66;4921750;29;20056;-78
2022/03/22 03:52:20;;;;;;;2.83;0.70;;;;;;;11.44;100.00;102245.47;4924578;29;20102;-75
2022/03/22 03:54:49;;;;;;;1.75;0.60;;;;;;;11.44;100.00;102240.28;4929303;29;20055;-75
2022/03/22 03:57:18;;;;;;;0.80;0.50;;;;;;;11.42;100.00;102236.72;4919897;29;20529;-76
2022/03/22 03:59:47;;;;;;;1.58;1.00;;;;;;;11.39;100.00;102236.59;4917462;29;20116;-77
2022/03/22 04:02:16;;;;;;;0.47;0.40;;;;;;;11.37;100.00;102245.97;4917389;29;20056;-76
2022/03/22 04:04:47;;;;;;;4.00;0.65;;;;;;;11.38;100.00;102239.97;4933667;29;20051;-75
2022/03/22 04:07:18;;;;;;;0.90;0.70;;;;;;;11.38;100.00;102250.34;4933950;29;20143;-75
2022/03/22 04:09:47;;;;;;;3.65;0.80;;;;;;;11.39;100.00;102253.84;4920284;29;20055;-75
2022/03/22 04:12:15;;;;;;;2.58;0.60;;;;;;;11.39;100.00;102249.53;4932726;29;20126;-73
2022/03/22 04:14:44;;;;;;;2.40;0.70;;;;;;;11.39;100.00;102251.25;4931305;29;20146;-74
2022/03/22 04:17:12;;;;;;;2.35;0.75;;;;;;;11.39;100.00;102246.94;4919354;29;20052;-74
2022/03/22 04:19:41;;;;;;;0.95;0.63;;;;;;;11.42;100.00;102249.69;4933412;29;20086;-75
2022/03/22 04:22:10;;;;;;;3.20;0.77;;;;;;;11.40;100.00;102253.91;4919689;29;20059;-74
2022/03/22 04:24:41;;;;;;;1.48;0.70;;;;;;;11.43;100.00;102268.72;4914514;29;20048;-74
2022/03/22 04:32:45;;;;;;;0.88;0.70;;;;;;;11.37;100.00;102279.66;4933480;29;20438;-74
2022/03/22 04:35:17;;;;;;;1.15;0.60;;;;;;;11.37;100.00;102282.25;4915901;29;20087;-73
2022/03/22 04:37:47;;;;;;;0.90;0.70;;;;;;;11.38;100.00;102299.59;4916027;29;20060;-75
2022/03/22 04:40:17;;;;;;;0.70;0.40;;;;;;;11.37;100.00;102292.63;4916449;28;20064;-73
2022/03/22 04:42:47;;;;;;;0.90;0.60;;;;;;;11.38;100.00;102297.00;4933380;29;20115;-73
2022/03/22 04:45:16;;;;;;;0.57;0.55;;;;;;;11.40;100.00;102291.91;4923883;29;20558;-74
2022/03/22 04:47:46;;;;;;;0.80;0.60;;;;;;;11.40;100.00;102294.47;4918528;29;20056;-73
2022/03/22 04:50:16;;;;;;;1.67;1.17;;;;;;;11.38;100.00;102297.00;4933511;29;20138;-73
2022/03/22 04:58:33;;;;;;;0.80;0.52;;;;;;;11.29;100.00;102280.97;4872516;29;20049;-73
2022/03/22 05:01:01;;;;;;;2.08;0.43;;;;;;;11.38;100.00;102290.91;4873835;29;20065;-74
2022/03/22 05:03:30;;;;;;;1.27;0.57;;;;;;;11.37;100.00;102294.34;4899732;29;20059;-74
2022/03/22 05:08:44;;;;;;;0.73;0.52;;;;;;;11.39;100.00;102293.59;4918256;29;20091;-74
2022/03/22 05:11:14;;;;;;;1.02;0.80;;;;;;;11.40;100.00;102295.38;4925686;29;20074;-74
2022/03/22 05:13:44;;;;;;;1.00;0.60;;;;;;;11.40;100.00;102289.31;4925532;29;20056;-74
2022/03/22 05:16:13;;;;;;;1.65;0.60;;;;;;;11.37;100.00;102295.22;4930176;29;20131;-75
2022/03/22 05:18:42;;;;;;;1.25;0.70;;;;;;;11.32;100.00;102297.59;4918486;29;20059;-74
2022/03/22 05:21:10;;;;;;;3.42;0.65;;;;;;;11.35;100.00;102307.22;4914054;29;20068;-73
2022/03/22 05:23:39;;;;;;;0.82;0.60;;;;;;;11.37;100.00;102303.00;4924929;29;20462;-74
2022/03/22 05:26:07;;;;;;;2.05;0.90;;;;;;;11.37;100.00;102313.38;4931541;29;20142;-73
2022/03/22 05:28:38;;;;;;;2.53;1.15;;;;;;;11.36;100.00;102309.00;4932889;29;20047;-74
2022/03/22 05:31:07;;;;;;;0.55;0.55;;;;;;;11.37;100.00;102309.91;4932083;29;20217;-74
2022/03/22 05:33:36;;;;;;;0.70;0.50;;;;;;;11.37;100.00;102315.06;4918619;29;20048;-75
2022/03/22 05:36:04;;;;;;;2.85;0.65;;;;;;;11.38;100.00;102307.34;4924675;29;20087;-73
2022/03/22 05:38:33;;;;;;;1.85;0.77;;;;;;;11.39;100.00;102313.44;4926957;29;20147;-73
2022/03/22 05:41:03;;;;;;;0.90;0.60;;;;;;;11.39;100.00;102314.34;4916941;28;20220;-73
2022/03/22 05:43:32;;;;;;;0.90;0.80;;;;;;;11.41;100.00;102317.91;4926559;29;20629;-74
2022/03/22 05:46:02;;;;;;;2.60;0.80;;;;;;;11.42;100.00;102314.47;4932762;29;20055;-75
2022/03/22 05:48:31;;;;;;;1.88;0.80;;;;;;;11.42;100.00;102323.97;4932734;29;20111;-76
2022/03/22 05:51:00;;;;;;;0.50;0.50;;;;;;;11.44;100.00;102320.63;4932573;29;20089;-73
2022/03/22 05:53:28;;;;;;;1.10;0.60;;;;;;;11.42;100.00;102327.44;4931860;29;20087;-74
2022/03/22 05:55:57;;;;;;;1.05;0.70;;;;;;;11.42;100.00;102330.03;4931750;29;20087;-73
2022/03/22 05:58:26;;;;;;;1.67;0.80;;;;;;;11.41;100.00;102325.69;4931401;29;20051;-75
2022/03/22 06:00:54;;;;;;;0.70;0.63;;;;;;;11.41;100.00;102328.28;4931534;29;20079;-74
2022/03/22 06:03:33;;;;;;;2.05;0.88;;;;;;;11.40;100.00;102331.66;4931921;29;20089;-73
2022/03/22 06:06:01;;;;;;;1.88;0.63;;;;;;;11.42;100.00;102335.22;4931919;29;20052;-71
2022/03/22 06:08:30;;;;;;;0.88;0.60;;;;;;;11.42;100.00;102323.97;4931524;29;20056;-71
2022/03/22 06:10:59;;;;;;;0.90;0.60;;;;;;;11.44;100.00;102332.72;4931029;29;20062;-71
2022/03/22 06:13:27;;;;;;;1.00;0.52;;;;;;;11.43;100.00;102344.78;4931745;29;20524;-71
2022/03/22 06:15:56;;;;;;;0.98;0.70;;;;;;;11.44;100.00;102338.78;4931492;29;20075;-71
2022/03/22 06:18:26;;;;;;;0.63;0.60;;;;;;;11.47;100.00;102343.22;4932040;29;20052;-71
2022/03/22 06:20:54;;;;;;;2.63;0.80;;;;;;;11.46;100.00;102339.75;4929667;29;20123;-71
2022/03/22 06:23:23;;;;;;;2.67;0.60;;;;;;;11.46;100.00;102339.75;4912517;29;20048;-71
2022/03/22 06:25:52;;;;;;;1.50;0.70;;;;;;;11.49;100.00;102336.44;4912950;29;20052;-71
2022/03/22 06:28:21;;;;;;;2.33;0.70;;;;;;;11.50;100.00;102333.91;4927495;29;20063;-72
2022/03/22 06:30:49;;;;;;;1.67;0.70;;;;;;;11.51;100.00;102337.41;4924275;29;20087;-72
2022/03/22 06:33:18;;;;;;;2.70;0.75;;;;;;;11.52;100.00;102339.16;4924278;29;20047;-71
2022/03/22 06:35:49;;;;;;;1.33;0.80;;;;;;;11.52;100.00;102340.06;4927900;29;20060;-72
2022/03/22 06:38:18;;;;;;;0.90;0.68;;;;;;;11.48;100.00;102345.91;4920855;29;20502;-71
2022/03/22 06:40:49;;;;;;;1.13;0.65;;;;;;;11.48;100.00;102340.72;4917203;28;20055;-72
2022/03/22 06:43:18;;;;;;;0.77;0.60;;;;;;;11.50;100.00;102344.28;4927356;29;20139;-72
2022/03/22 06:45:47;;;;;;;1.73;0.93;;;;;;;11.51;100.00;102351.25;4918441;29;20490;-72
2022/03/22 06:48:22;;;;;;;2.00;0.75;;;;;;;11.51;100.00;102345.16;4931009;29;20059;-73
2022/03/22 06:50:52;;;;;;;2.78;1.05;;;;;;;11.50;100.00;102352.06;4926961;29;20610;-73
2022/03/22 06:53:21;;;;;;;1.17;0.90;;;;;;;11.50;100.00;102352.06;4921632;29;20114;-73
2022/03/22 06:55:51;;;;;;;2.03;0.70;;;;;;;11.51;100.00;102350.34;4930781;29;20055;-72
2022/03/22 06:58:26;;;;;;;0.93;0.85;;;;;;;11.50;100.00;102353.78;4928777;29;20063;-72
2022/03/22 07:00:55;;;;;;;4.22;0.80;;;;;;;11.51;100.00;102356.44;4912229;29;20721;-72
2022/03/22 07:03:24;;;;;;;1.00;0.70;;;;;;;11.53;100.00;102360.00;4912968;29;20052;-72
2022/03/22 07:05:55;;;;;;;1.08;0.70;;;;;;;11.54;100.00;102360.88;4932001;29;20044;-72
2022/03/22 07:08:26;;;;;;;1.90;0.80;;;;;;;11.56;100.00;102368.75;4916693;29;20050;-72
2022/03/22 07:13:40;;;;;;;0.80;0.70;;;;;;;11.55;100.00;102364.38;4934842;29;20062;-71
2022/03/22 07:16:08;;;;;;;1.38;0.65;;;;;;;11.58;100.00;102370.59;4929516;29;20124;-72
2022/03/22 07:18:37;;;;;;;3.17;0.77;;;;;;;11.57;100.00;102365.31;4925376;29;20521;-72
2022/03/22 07:21:07;;;;;;;1.45;0.85;;;;;;;11.58;100.00;102367.13;4934182;29;20114;-72
2022/03/22 07:23:35;;;;;;;1.08;0.90;;;;;;;11.58;100.00;102368.00;4921896;29;20095;-72
2022/03/22 07:26:04;;;;;;;1.38;0.95;;;;;;;11.59;100.00;102364.63;4934170;29;20083;-72
2022/03/22 07:28:35;;;;;;;1.25;1.00;;;;;;;11.61;100.00;102372.44;4933625;29;20421;-72
2022/03/22 07:31:04;;;;;;;1.13;0.82;;;;;;;11.61;100.00;102369.84;4915903;29;20052;-71
2022/03/22 07:33:32;;;;;;;0.57;0.57;;;;;;;11.62;100.00;102363.88;4917069;29;20499;-71
2022/03/22 07:36:01;;;;;;;1.10;0.70;;;;;;;11.64;100.00;102372.63;4932255;29;20051;-72
2022/03/22 07:38:31;;;;;;;0.95;0.70;;;;;;;11.67;100.00;102370.19;4924221;29;20051;-72
2022/03/22 07:41:00;;;;;;;1.02;0.60;;;;;;;11.69;100.00;102368.56;4925457;28;20146;-71
2022/03/22 07:43:30;;;;;;;0.60;0.55;;;;;;;11.71;100.00;102374.72;4926210;29;20501;-72
2022/03/22 07:45:58;;;;;;;3.28;0.70;;;;;;;11.68;100.00;102374.53;4934711;29;20106;-72
2022/03/22 07:48:27;;;;;;;0.93;0.73;;;;;;;11.68;100.00;102374.53;4920324;29;20171;-72
2022/03/22 07:53:44;;;;;;;0.52;0.50;;;;;;;11.69;100.00;102379.81;4930597;29;20382;-71
2022/03/22 07:56:13;;;;;;;0.57;0.52;;;;;;;11.68;100.00;102382.31;4933923;29;20043;-71
2022/03/22 07:58:41;;;;;;;0.93;0.63;;;;;;;11.67;100.00;102383.13;4919823;29;20044;-71
2022/03/22 08:01:10;;;;;;;1.58;0.70;;;;;;;11.69;100.00;102384.13;4915551;29;20506;-71
2022/03/22 08:03:38;;;;;;;2.13;0.88;;;;;;;11.68;100.00;102387.50;4919527;29;20051;-72
2022/03/22 08:06:07;;;;;;;1.58;0.63;;;;;;;11.69;100.00;102392.78;4933529;29;20572;-72
2022/03/22 08:08:43;;;;;;;1.85;0.60;;;;;;;11.70;100.00;102394.56;4933704;29;20067;-72
2022/03/22 08:11:13;;;;;;;0.57;0.57;;;;;;;11.74;100.00;102393.00;4919868;29;20044;-72
2022/03/22 08:13:42;;;;;;;2.25;0.77;;;;;;;11.75;100.00;102400.00;4929204;29;20108;-71
2022/03/22 08:16:10;;;;;;;0.85;0.70;;;;;;;11.77;100.00;102406.13;4915077;29;20600;-72
2022/03/22 08:18:39;;;;;;;0.90;0.55;;;;;;;11.76;100.00;102404.34;4915524;29;20060;-71
2022/03/22 08:21:07;;;;;;;2.45;0.70;;;;;;;11.77;100.00;102408.72;4915561;29;20048;-72
2022/03/22 08:23:36;;;;;;;0.50;0.40;;;;;;;11.80;100.00;102408.91;4925679;29;20059;-71
2022/03/22 08:26:04;;;;;;;2.97;0.90;;;;;;;11.82;100.00;102415.06;4919960;29;20048;-71
2022/03/22 08:28:36;;;;;;;0.65;0.47;;;;;;;11.83;100.00;102406.44;4923380;29;20052;-72
2022/03/22 08:31:05;;;;;;;2.97;0.55;;;;;;;11.77;100.00;102400.94;4918767;29;20111;-72
2022/03/22 08:33:33;;;;;;;0.50;0.43;;;;;;;11.89;100.00;102424.06;4922590;29;20048;-72
2022/03/22 08:36:02;;;;;;;1.45;0.80;;;;;;;11.90;100.00;102413.75;4934027;29;20055;-72
2022/03/22 08:38:31;;;;;;;0.75;0.57;;;;;;;11.91;100.00;102410.38;4931776;29;20044;-71
2022/03/22 08:40:59;;;;;;;2.80;0.73;;;;;;;11.93;100.00;102423.38;4928868;28;20066;-72
2022/03/22 08:43:28;;;;;;;1.05;0.60;;;;;;;11.93;100.00;102423.38;4925727;29;20044;-72
2022/03/22 08:45:58;;;;;;;3.83;0.60;;;;;;;11.92;100.00;102417.31;4925680;29;20127;-71
2022/03/22 08:48:27;;;;;;;1.23;0.77;;;;;;;11.90;100.00;102408.56;4914205;29;20119;-72
2022/03/22 08:50:55;;;;;;;0.73;0.70;;;;;;;11.88;100.00;102412.78;4916307;29;20473;-72
2022/03/22 08:53:24;;;;;;;1.88;0.50;;;;;;;11.85;100.00;102410.00;4915680;29;20115;-71
2022/03/22 08:55:55;;;;;;;1.02;0.55;;;;;;;11.90;100.00;102418.94;4916404;29;20538;-72
2022/03/22 08:58:24;;;;;;;0.68;0.57;;;;;;;11.93;100.00;102416.53;4927816;29;20553;-72
2022/03/22 09:00:52;;;;;;;1.92;0.68;;;;;;;11.93;100.00;102416.53;4924701;29;20052;-71
2022/03/22 09:03:23;;;;;;;0.50;0.50;;;;;;;11.97;100.00;102409.75;4915244;29;20088;-71
2022/03/22 09:06:09;;;;;;;2.30;0.75;;;;;;;12.00;100.00;102409.91;4931287;29;20062;-71
2022/03/22 09:08:38;;;;;;;0.75;0.63;;;;;;;12.01;100.00;102421.19;4932727;29;20082;-71
2022/03/22 09:11:08;;;;;;;3.47;0.63;;;;;;;12.02;100.00;102420.38;4929885;29;20119;-72
2022/03/22 09:13:37;;;;;;;2.15;0.70;;;;;;;12.03;100.00;102420.47;4915148;29;20051;-72
2022/03/22 09:16:13;;;;;;;1.88;0.60;;;;;;;12.05;100.00;102420.50;4921821;29;20111;-72
2022/03/22 09:18:46;;;;;;;0.80;0.60;;;;;;;12.03;100.00;102420.47;4920223;29;20111;-72
2022/03/22 09:21:17;;;;;;;2.38;0.80;;;;;;;12.04;100.00;102416.16;4913855;29;20048;-71
2022/03/22 09:23:46;;;;;;;2.65;0.70;;;;;;;12.05;100.00;102412.72;4913519;29;20056;-71
2022/03/22 09:26:14;;;;;;;0.98;0.63;;;;;;;12.05;100.00;102421.44;4928571;29;20048;-71
2022/03/22 09:28:42;;;;;;;1.73;0.60;;;;;;;12.08;100.00;102420.69;4928808;29;20056;-72
2022/03/22 09:31:11;;;;;;;1.17;0.50;;;;;;;12.08;100.00;102412.91;4914808;29;20490;-72
2022/03/22 09:33:40;;;;;;;1.00;0.60;;;;;;;12.13;100.00;102421.81;4931622;29;20076;-72
2022/03/22 09:36:10;;;;;;;1.27;1.17;;;;;;;12.15;100.00;102414.97;4932200;29;20107;-71
2022/03/22 09:38:39;;;;;;;5.00;0.70;;;;;;;12.16;100.00;102421.94;4923169;29;20565;-71
2022/03/22 09:41:08;;;;;;;2.15;1.00;;;;;;;12.18;100.00;102425.50;4932843;28;20052;-71
2022/03/22 09:43:39;;;;;;;1.25;0.50;;;;;;;12.19;100.00;102416.94;4925476;29;20569;-72
2022/03/22 09:46:09;;;;;;;1.83;0.70;;;;;;;12.16;100.00;102411.56;4929355;29;20048;-72
2022/03/22 09:48:45;;;;;;;0.77;0.50;;;;;;;12.11;100.00;102420.84;4918647;29;20143;-71
2022/03/22 09:54:08;;;;;;;0.93;0.50;;;;;;;12.12;100.00;102417.44;4932180;29;20106;-72
2022/03/22 09:56:37;;;;;;;1.65;1.05;;;;;;;12.15;100.00;102426.25;4930742;29;20047;-71
2022/03/22 09:59:06;;;;;;;0.57;0.52;;;;;;;12.18;100.00;102422.03;4921045;29;20047;-71
2022/03/22 10:01:34;;;;;;;0.70;0.50;;;;;;;12.14;100.00;102410.63;4931080;29;20051;-71
2022/03/22 10:04:05;;;;;;;1.15;0.60;;;;;;;12.22;100.00;102431.75;4913419;29;20083;-71
2022/03/22 10:06:38;;;;;;;1.88;0.90;;;;;;;12.19;100.00;102419.53;4921839;29;20048;-72
2022/03/22 10:09:07;;;;;;;0.88;0.70;;;;;;;12.15;100.00;102425.38;4930751;29;20098;-71
2022/03/22 10:11:37;;;;;;;1.55;0.80;;;;;;;12.08;100.00;102418.09;4930938;29;20414;-71
2022/03/22 10:14:08;;;;;;;1.58;0.80;;;;;;;12.09;100.00;102419.84;4919041;29;20048;-71
2022/03/22 10:16:47;;;;;;;0.85;0.55;;;;;;;12.12;100.00;102417.44;4931346;29;20438;-71
2022/03/22 10:19:26;;;;;;;0.88;0.60;;;;;;;12.13;100.00;102416.59;4931495;29;20051;-72
2022/03/22 10:21:58;;;;;;;0.93;0.50;;;;;;;12.09;100.00;102405.19;4912559;29;20520;-71
2022/03/22 10:24:26;;;;;;;0.75;0.40;;;;;;;12.06;100.00;102409.34;4915627;29;20056;-72
2022/03/22 10:26:55;;;;;;;2.33;0.90;;;;;;;12.08;100.00;102410.31;4931712;29;20047;-71
2022/03/22 10:29:23;;;;;;;1.95;0.60;;;;;;;12.10;100.00;102413.88;4931511;29;20694;-71
2022/03/22 10:31:52;;;;;;;1.85;0.95;;;;;;;12.13;100.00;102421.81;4925229;29;20124;-71
2022/03/22 10:34:30;;;;;;;1.50;0.50;;;;;;;12.16;100.00;102419.34;4912677;29;20499;-71
2022/03/22 10:37:00;;;;;;;2.33;0.68;;;;;;;12.10;100.00;102408.69;4914087;29;20498;-71
2022/03/22 10:39:28;;;;;;;2.40;0.60;;;;;;;12.18;100.00;102420.31;4925621;28;20083;-72
2022/03/22 10:42:06;;;;;;;1.02;0.63;;;;;;;12.16;100.00;102421.94;4923636;29;20128;-71
2022/03/22 10:44:37;;;;;;;1.23;0.80;;;;;;;12.15;100.00;102415.88;4931035;29;20111;-71
2022/03/22 10:47:07;;;;;;;0.85;0.70;;;;;;;12.15;100.00;102415.88;4920280;29;20052;-71
2022/03/22 10:49:36;;;;;;;0.95;0.70;;;;;;;12.15;100.00;102417.59;4912423;29;20056;-71
2022/03/22 10:52:13;;;;;;;1.40;0.60;;;;;;;12.14;100.00;102408.91;4927849;29;20052;-71
2022/03/22 10:54:45;;;;;;;0.90;0.60;;;;;;;12.14;100.00;102421.88;4924195;29;20066;-71
2022/03/22 10:57:17;;;;;;;0.70;0.52;;;;;;;12.14;100.00;102415.81;4927792;29;20728;-71
2022/03/22 10:59:48;;;;;;;1.20;0.60;;;;;;;12.14;100.00;102414.09;4931040;29;20106;-71
2022/03/22 11:02:21;;;;;;;1.27;0.60;;;;;;;12.15;100.00;102409.78;4930044;29;20505;-71
2022/03/22 11:04:50;;;;;;;0.95;0.75;;;;;;;12.14;100.00;102418.41;4930703;29;20087;-71
2022/03/22 11:07:23;;;;;;;0.85;0.55;;;;;;;12.15;100.00;102409.78;4919521;29;20063;-70
2022/03/22 11:09:52;;;;;;;0.73;0.50;;;;;;;12.17;100.00;102415.97;4914885;29;20054;-70
2022/03/22 11:12:21;;;;;;;2.15;0.80;;;;;;;12.18;100.00;102414.25;4931021;29;20111;-71
2022/03/22 11:14:49;;;;;;;1.13;0.55;;;;;;;12.20;100.00;102408.31;4944228;29;20142;-70
2022/03/22 11:17:18;;;;;;;0.60;0.50;;;;;;;12.21;100.00;102410.13;4925198;29;20525;-71
2022/03/22 11:19:49;;;;;;;0.40;0.40;;;;;;;12.22;100.00;102411.88;4923607;29;20075;-71
2022/03/22 11:22:21;;;;;;;0.90;0.50;;;;;;;12.24;100.00;102410.25;4934132;29;20055;-71
2022/03/22 11:24:49;;;;;;;1.00;0.60;;;;;;;12.23;100.00;102408.47;4920626;29;20056;-71
2022/03/22 11:27:18;;;;;;;0.60;0.55;;;;;;;12.21;100.00;102410.13;4927351;29;20147;-71
2022/03/22 11:29:47;;;;;;;0.65;0.60;;;;;;;12.23;100.00;102415.34;4920496;29;20048;-72
2022/03/22 11:35:24;;;;;;;0.93;0.32;;;;;;;12.22;100.00;102422.25;4883408;29;20083;-71
2022/03/22 11:38:01;;;;;;;0.40;0.40;;;;;;;12.22;100.00;102411.00;4924692;29;20051;-72
2022/03/22 11:43:17;;;;;;;1.63;0.88;;;;;;;12.22;100.00;102422.25;4915560;29;20164;-71
2022/03/22 11:45:50;;;;;;;1.00;0.68;;;;;;;12.20;100.00;102416.09;4923887;29;20080;-72
2022/03/22 11:48:19;;;;;;;1.08;0.60;;;;;;;12.18;100.00;102412.53;4911521;29;20048;-71
2022/03/22 11:50:48;;;;;;;1.33;0.70;;;;;;;12.14;100.00;102405.44;4916744;29;20139;-71
2022/03/22 11:53:22;;;;;;;0.82;0.63;;;;;;;12.15;100.00;102409.78;4923968;29;20084;-71
2022/03/22 11:55:54;;;;;;;0.95;0.60;;;;;;;12.08;100.00;102397.34;4917949;29;20135;-71
2022/03/22 11:58:29;;;;;;;1.35;0.80;;;;;;;12.17;100.00;102413.34;4950121;28;20530;-71
2022/03/22 12:01:00;;;;;;;1.13;0.60;;;;;;;12.16;100.00;102421.94;4939183;29;20115;-71
2022/03/22 12:03:33;;;;;;;0.98;0.65;;;;;;;12.17;100.00;102413.34;4927366;29;20322;-70
2022/03/22 12:06:11;;;;;;;1.30;0.70;;;;;;;12.17;100.00;102418.56;4916595;29;20072;-70
2022/03/22 12:08:42;;;;;;;1.05;0.50;;;;;;;12.18;100.00;102409.06;4928060;29;20048;-70